Pike Station, Illinois
Current Conditions -  °F | °C
As of 10:35 AM on Saturday 20 Dec 2014 (Local Time) from KPPQ Reporting Station
Haze Haze  
Wind Chill: 31°   Ceiling: 3000
Heat Index: 36°   Visibility: 5mi
Dew Point: 32°   Wind: 6mph
Humidity: 85%   Direction: 160°SSE
Pressure: 30.27"   Gusts: NA
Location:  39.5365°N, 91.0118°W
Report Text: KPPQ 201635Z AUTO 16005KT 5SM HZ SCT013 OVC030 02/00 A3027 RMK AO2 T00201002
Loading
Personal Weather Stations






























Interactive Weather Map New forecast layout! Learn more

10-Day Weather Forecast

Advertisements
Track Severe Weather on mobile